sensor_id;sensor_type;location;lat;lon;timestamp;P1;durP1;ratioP1;P2;durP2;ratioP2
64157;SDS011;50449;51.528;5.076;2023-06-19T00:01:51;116.95;;;111.70;;
64157;SDS011;50449;51.528;5.076;2023-06-19T00:04:16;115.93;;;110.70;;
64157;SDS011;50449;51.528;5.076;2023-06-19T00:06:42;112.00;;;106.97;;
64157;SDS011;50449;51.528;5.076;2023-06-19T00:09:07;115.22;;;110.07;;
64157;SDS011;50449;51.528;5.076;2023-06-19T00:11:32;112.30;;;107.38;;
64157;SDS011;50449;51.528;5.076;2023-06-19T00:13:58;114.22;;;109.13;;
64157;SDS011;50449;51.528;5.076;2023-06-19T00:16:24;111.88;;;106.93;;
64157;SDS011;50449;51.528;5.076;2023-06-19T00:18:50;114.88;;;109.78;;
64157;SDS011;50449;51.528;5.076;2023-06-19T00:21:19;113.75;;;108.55;;
64157;SDS011;50449;51.528;5.076;2023-06-19T00:23:45;113.13;;;108.00;;
64157;SDS011;50449;51.528;5.076;2023-06-19T00:26:10;110.13;;;105.15;;
64157;SDS011;50449;51.528;5.076;2023-06-19T00:28:39;112.57;;;107.60;;
64157;SDS011;50449;51.528;5.076;2023-06-19T00:31:06;111.35;;;106.35;;
64157;SDS011;50449;51.528;5.076;2023-06-19T00:33:31;109.70;;;104.88;;
64157;SDS011;50449;51.528;5.076;2023-06-19T00:35:57;109.35;;;104.50;;
64157;SDS011;50449;51.528;5.076;2023-06-19T00:38:22;109.72;;;104.93;;
64157;SDS011;50449;51.528;5.076;2023-06-19T00:40:48;107.97;;;103.03;;
64157;SDS011;50449;51.528;5.076;2023-06-19T00:43:14;109.90;;;104.97;;
64157;SDS011;50449;51.528;5.076;2023-06-19T00:45:39;111.55;;;106.40;;
64157;SDS011;50449;51.528;5.076;2023-06-19T00:48:05;107.57;;;102.68;;
64157;SDS011;50449;51.528;5.076;2023-06-19T00:50:30;112.07;;;107.03;;
64157;SDS011;50449;51.528;5.076;2023-06-19T00:52:56;114.47;;;109.18;;
64157;SDS011;50449;51.528;5.076;2023-06-19T00:55:23;107.15;;;102.25;;
64157;SDS011;50449;51.528;5.076;2023-06-19T00:57:53;109.18;;;104.38;;
64157;SDS011;50449;51.528;5.076;2023-06-19T01:00:19;114.35;;;108.40;;
64157;SDS011;50449;51.528;5.076;2023-06-19T01:02:45;108.70;;;103.82;;
64157;SDS011;50449;51.528;5.076;2023-06-19T01:05:12;109.32;;;104.47;;
64157;SDS011;50449;51.528;5.076;2023-06-19T01:10:23;112.88;;;107.97;;
64157;SDS011;50449;51.528;5.076;2023-06-19T01:13:01;106.90;;;102.05;;
64157;SDS011;50449;51.528;5.076;2023-06-19T01:15:33;109.68;;;104.78;;
64157;SDS011;50449;51.528;5.076;2023-06-19T01:18:00;108.65;;;103.88;;
64157;SDS011;50449;51.528;5.076;2023-06-19T01:20:27;109.60;;;104.80;;
64157;SDS011;50449;51.528;5.076;2023-06-19T01:22:53;107.45;;;102.65;;
64157;SDS011;50449;51.528;5.076;2023-06-19T01:25:21;109.70;;;104.75;;
64157;SDS011;50449;51.528;5.076;2023-06-19T01:27:50;108.15;;;103.50;;
64157;SDS011;50449;51.528;5.076;2023-06-19T01:30:16;111.32;;;106.15;;
64157;SDS011;50449;51.528;5.076;2023-06-19T01:32:47;109.40;;;104.63;;
64157;SDS011;50449;51.528;5.076;2023-06-19T01:35:25;110.25;;;105.18;;
64157;SDS011;50449;51.528;5.076;2023-06-19T01:37:53;106.50;;;101.90;;
64157;SDS011;50449;51.528;5.076;2023-06-19T01:40:19;108.72;;;103.90;;
64157;SDS011;50449;51.528;5.076;2023-06-19T01:42:51;108.00;;;103.25;;
64157;SDS011;50449;51.528;5.076;2023-06-19T01:45:17;110.18;;;105.38;;
64157;SDS011;50449;51.528;5.076;2023-06-19T01:47:43;107.63;;;102.93;;
64157;SDS011;50449;51.528;5.076;2023-06-19T01:50:08;108.03;;;103.43;;
64157;SDS011;50449;51.528;5.076;2023-06-19T01:52:35;108.78;;;103.93;;
64157;SDS011;50449;51.528;5.076;2023-06-19T01:55:01;106.32;;;101.53;;
64157;SDS011;50449;51.528;5.076;2023-06-19T01:57:27;104.07;;;99.47;;
64157;SDS011;50449;51.528;5.076;2023-06-19T01:59:53;112.85;;;107.88;;
64157;SDS011;50449;51.528;5.076;2023-06-19T02:02:18;106.72;;;102.00;;
64157;SDS011;50449;51.528;5.076;2023-06-19T02:04:43;108.78;;;103.97;;
64157;SDS011;50449;51.528;5.076;2023-06-19T02:07:09;106.57;;;101.97;;
64157;SDS011;50449;51.528;5.076;2023-06-19T02:09:35;115.63;;;109.82;;
64157;SDS011;50449;51.528;5.076;2023-06-19T02:12:03;106.40;;;101.70;;
64157;SDS011;50449;51.528;5.076;2023-06-19T02:14:28;106.85;;;102.15;;
64157;SDS011;50449;51.528;5.076;2023-06-19T02:16:54;109.43;;;104.55;;
64157;SDS011;50449;51.528;5.076;2023-06-19T02:19:19;108.47;;;103.68;;
64157;SDS011;50449;51.528;5.076;2023-06-19T02:21:45;105.45;;;100.80;;
64157;SDS011;50449;51.528;5.076;2023-06-19T02:24:10;108.50;;;103.70;;
64157;SDS011;50449;51.528;5.076;2023-06-19T02:26:36;107.20;;;102.50;;
64157;SDS011;50449;51.528;5.076;2023-06-19T02:29:01;105.25;;;100.65;;
64157;SDS011;50449;51.528;5.076;2023-06-19T02:31:26;110.95;;;106.10;;
64157;SDS011;50449;51.528;5.076;2023-06-19T02:33:52;110.18;;;105.28;;
64157;SDS011;50449;51.528;5.076;2023-06-19T02:36:17;104.28;;;99.70;;
64157;SDS011;50449;51.528;5.076;2023-06-19T02:38:47;107.53;;;102.72;;
64157;SDS011;50449;51.528;5.076;2023-06-19T02:41:15;108.95;;;103.72;;
64157;SDS011;50449;51.528;5.076;2023-06-19T02:43:41;107.18;;;102.28;;
64157;SDS011;50449;51.528;5.076;2023-06-19T02:46:08;107.13;;;102.03;;
64157;SDS011;50449;51.528;5.076;2023-06-19T02:48:33;107.53;;;102.78;;
64157;SDS011;50449;51.528;5.076;2023-06-19T02:50:59;105.50;;;100.70;;
64157;SDS011;50449;51.528;5.076;2023-06-19T02:53:24;108.15;;;103.45;;
64157;SDS011;50449;51.528;5.076;2023-06-19T02:55:50;104.43;;;99.82;;
64157;SDS011;50449;51.528;5.076;2023-06-19T02:58:16;106.82;;;102.05;;
64157;SDS011;50449;51.528;5.076;2023-06-19T03:00:41;105.88;;;101.18;;
64157;SDS011;50449;51.528;5.076;2023-06-19T03:03:06;103.95;;;99.43;;
64157;SDS011;50449;51.528;5.076;2023-06-19T03:05:32;110.40;;;105.50;;
64157;SDS011;50449;51.528;5.076;2023-06-19T03:07:57;105.57;;;100.78;;
64157;SDS011;50449;51.528;5.076;2023-06-19T03:10:23;103.35;;;98.85;;
64157;SDS011;50449;51.528;5.076;2023-06-19T03:12:48;104.88;;;100.18;;
64157;SDS011;50449;51.528;5.076;2023-06-19T03:15:14;109.45;;;104.55;;
64157;SDS011;50449;51.528;5.076;2023-06-19T03:17:39;104.97;;;100.28;;
64157;SDS011;50449;51.528;5.076;2023-06-19T03:20:05;106.57;;;101.53;;
64157;SDS011;50449;51.528;5.076;2023-06-19T03:22:31;105.45;;;100.78;;
64157;SDS011;50449;51.528;5.076;2023-06-19T03:24:56;104.90;;;100.28;;
64157;SDS011;50449;51.528;5.076;2023-06-19T03:27:22;103.28;;;98.70;;
64157;SDS011;50449;51.528;5.076;2023-06-19T03:29:49;106.03;;;101.37;;
64157;SDS011;50449;51.528;5.076;2023-06-19T03:32:15;107.38;;;102.50;;
64157;SDS011;50449;51.528;5.076;2023-06-19T03:34:40;109.40;;;104.55;;
64157;SDS011;50449;51.528;5.076;2023-06-19T03:37:06;104.22;;;99.57;;
64157;SDS011;50449;51.528;5.076;2023-06-19T03:39:31;103.45;;;98.88;;
64157;SDS011;50449;51.528;5.076;2023-06-19T03:41:57;107.45;;;102.55;;
64157;SDS011;50449;51.528;5.076;2023-06-19T03:44:22;104.50;;;99.75;;
64157;SDS011;50449;51.528;5.076;2023-06-19T03:46:47;104.80;;;100.10;;
64157;SDS011;50449;51.528;5.076;2023-06-19T03:49:13;105.25;;;100.45;;
64157;SDS011;50449;51.528;5.076;2023-06-19T03:51:38;106.35;;;101.63;;
64157;SDS011;50449;51.528;5.076;2023-06-19T03:54:03;105.80;;;101.03;;
64157;SDS011;50449;51.528;5.076;2023-06-19T03:56:29;106.57;;;101.85;;
64157;SDS011;50449;51.528;5.076;2023-06-19T03:58:54;104.53;;;99.57;;
64157;SDS011;50449;51.528;5.076;2023-06-19T04:01:20;104.38;;;99.75;;
64157;SDS011;50449;51.528;5.076;2023-06-19T04:03:45;105.75;;;100.97;;
64157;SDS011;50449;51.528;5.076;2023-06-19T04:06:11;104.22;;;99.63;;
64157;SDS011;50449;51.528;5.076;2023-06-19T04:08:36;108.60;;;103.80;;
64157;SDS011;50449;51.528;5.076;2023-06-19T04:11:01;104.18;;;99.38;;
64157;SDS011;50449;51.528;5.076;2023-06-19T04:13:27;106.03;;;101.22;;
64157;SDS011;50449;51.528;5.076;2023-06-19T04:15:52;106.32;;;101.53;;
64157;SDS011;50449;51.528;5.076;2023-06-19T04:18:18;100.38;;;95.78;;
64157;SDS011;50449;51.528;5.076;2023-06-19T04:20:43;103.28;;;98.57;;
64157;SDS011;50449;51.528;5.076;2023-06-19T04:23:09;106.72;;;101.63;;
64157;SDS011;50449;51.528;5.076;2023-06-19T04:25:34;104.40;;;99.75;;
64157;SDS011;50449;51.528;5.076;2023-06-19T04:28:00;101.80;;;97.18;;
64157;SDS011;50449;51.528;5.076;2023-06-19T04:32:53;98.90;;;94.45;;
64157;SDS011;50449;51.528;5.076;2023-06-19T04:35:19;98.90;;;94.45;;
64157;SDS011;50449;51.528;5.076;2023-06-19T04:37:45;103.15;;;98.38;;
64157;SDS011;50449;51.528;5.076;2023-06-19T04:40:13;102.38;;;97.38;;
64157;SDS011;50449;51.528;5.076;2023-06-19T04:42:39;103.15;;;98.45;;
64157;SDS011;50449;51.528;5.076;2023-06-19T04:45:04;104.40;;;99.18;;
64157;SDS011;50449;51.528;5.076;2023-06-19T04:47:32;101.88;;;97.28;;
64157;SDS011;50449;51.528;5.076;2023-06-19T04:49:59;104.55;;;99.47;;
64157;SDS011;50449;51.528;5.076;2023-06-19T04:52:24;103.75;;;98.93;;
64157;SDS011;50449;51.528;5.076;2023-06-19T04:54:50;103.55;;;98.70;;
64157;SDS011;50449;51.528;5.076;2023-06-19T04:57:15;101.70;;;97.00;;
64157;SDS011;50449;51.528;5.076;2023-06-19T04:59:41;106.82;;;101.80;;
64157;SDS011;50449;51.528;5.076;2023-06-19T05:02:09;100.68;;;96.07;;
64157;SDS011;50449;51.528;5.076;2023-06-19T05:04:35;103.60;;;98.82;;
64157;SDS011;50449;51.528;5.076;2023-06-19T05:07:01;105.22;;;100.28;;
64157;SDS011;50449;51.528;5.076;2023-06-19T05:09:27;104.35;;;99.63;;
64157;SDS011;50449;51.528;5.076;2023-06-19T05:11:53;103.18;;;98.07;;
64157;SDS011;50449;51.528;5.076;2023-06-19T05:14:18;100.13;;;95.60;;
64157;SDS011;50449;51.528;5.076;2023-06-19T05:16:44;103.55;;;98.75;;
64157;SDS011;50449;51.528;5.076;2023-06-19T05:19:09;102.63;;;97.85;;
64157;SDS011;50449;51.528;5.076;2023-06-19T05:21:35;100.60;;;95.85;;
64157;SDS011;50449;51.528;5.076;2023-06-19T05:24:00;100.00;;;95.35;;
64157;SDS011;50449;51.528;5.076;2023-06-19T05:26:26;102.10;;;97.40;;
64157;SDS011;50449;51.528;5.076;2023-06-19T05:28:51;102.60;;;97.80;;
64157;SDS011;50449;51.528;5.076;2023-06-19T05:31:17;101.95;;;97.18;;
64157;SDS011;50449;51.528;5.076;2023-06-19T05:33:43;102.60;;;97.90;;
64157;SDS011;50449;51.528;5.076;2023-06-19T05:36:09;102.88;;;98.18;;
64157;SDS011;50449;51.528;5.076;2023-06-19T05:38:35;100.35;;;95.85;;
64157;SDS011;50449;51.528;5.076;2023-06-19T05:41:01;99.30;;;94.65;;
64157;SDS011;50449;51.528;5.076;2023-06-19T05:43:27;101.00;;;96.40;;
64157;SDS011;50449;51.528;5.076;2023-06-19T05:45:53;100.70;;;95.60;;
64157;SDS011;50449;51.528;5.076;2023-06-19T05:48:19;103.05;;;98.35;;
64157;SDS011;50449;51.528;5.076;2023-06-19T05:50:45;101.97;;;97.18;;
64157;SDS011;50449;51.528;5.076;2023-06-19T05:53:10;102.20;;;97.32;;
64157;SDS011;50449;51.528;5.076;2023-06-19T05:55:35;102.50;;;97.68;;
64157;SDS011;50449;51.528;5.076;2023-06-19T05:58:02;97.97;;;93.45;;
64157;SDS011;50449;51.528;5.076;2023-06-19T06:00:28;100.97;;;96.32;;
64157;SDS011;50449;51.528;5.076;2023-06-19T06:02:55;103.95;;;99.00;;
64157;SDS011;50449;51.528;5.076;2023-06-19T06:05:25;101.78;;;97.13;;
64157;SDS011;50449;51.528;5.076;2023-06-19T06:07:51;101.18;;;95.65;;
64157;SDS011;50449;51.528;5.076;2023-06-19T06:10:17;98.20;;;93.53;;
64157;SDS011;50449;51.528;5.076;2023-06-19T06:12:44;99.60;;;94.90;;
64157;SDS011;50449;51.528;5.076;2023-06-19T06:15:09;99.13;;;94.45;;
64157;SDS011;50449;51.528;5.076;2023-06-19T06:17:35;99.05;;;94.43;;
64157;SDS011;50449;51.528;5.076;2023-06-19T06:20:00;97.95;;;93.00;;
64157;SDS011;50449;51.528;5.076;2023-06-19T06:22:26;101.30;;;96.40;;
64157;SDS011;50449;51.528;5.076;2023-06-19T06:24:51;103.47;;;98.50;;
64157;SDS011;50449;51.528;5.076;2023-06-19T06:27:18;100.13;;;95.18;;
64157;SDS011;50449;51.528;5.076;2023-06-19T06:29:43;100.20;;;95.45;;
64157;SDS011;50449;51.528;5.076;2023-06-19T06:32:09;101.45;;;96.75;;
64157;SDS011;50449;51.528;5.076;2023-06-19T06:34:34;99.25;;;94.55;;
64157;SDS011;50449;51.528;5.076;2023-06-19T06:37:00;102.22;;;97.22;;
64157;SDS011;50449;51.528;5.076;2023-06-19T06:39:26;104.05;;;99.20;;
64157;SDS011;50449;51.528;5.076;2023-06-19T06:41:51;102.95;;;98.05;;
64157;SDS011;50449;51.528;5.076;2023-06-19T06:44:17;102.38;;;97.35;;
64157;SDS011;50449;51.528;5.076;2023-06-19T06:46:42;99.85;;;95.05;;
64157;SDS011;50449;51.528;5.076;2023-06-19T06:49:07;104.03;;;98.18;;
64157;SDS011;50449;51.528;5.076;2023-06-19T06:51:33;102.85;;;97.55;;
64157;SDS011;50449;51.528;5.076;2023-06-19T06:53:58;105.68;;;100.22;;
64157;SDS011;50449;51.528;5.076;2023-06-19T06:56:24;104.35;;;99.25;;
64157;SDS011;50449;51.528;5.076;2023-06-19T06:58:49;106.65;;;101.35;;
64157;SDS011;50449;51.528;5.076;2023-06-19T07:01:15;99.78;;;95.18;;
64157;SDS011;50449;51.528;5.076;2023-06-19T07:03:40;101.70;;;96.72;;
64157;SDS011;50449;51.528;5.076;2023-06-19T07:06:05;100.78;;;96.05;;
64157;SDS011;50449;51.528;5.076;2023-06-19T07:08:31;102.50;;;97.50;;
64157;SDS011;50449;51.528;5.076;2023-06-19T07:10:56;103.32;;;98.40;;
64157;SDS011;50449;51.528;5.076;2023-06-19T07:13:22;103.95;;;98.78;;
64157;SDS011;50449;51.528;5.076;2023-06-19T07:15:47;103.75;;;98.63;;
64157;SDS011;50449;51.528;5.076;2023-06-19T07:18:12;103.72;;;98.70;;
64157;SDS011;50449;51.528;5.076;2023-06-19T07:20:38;102.35;;;97.07;;
64157;SDS011;50449;51.528;5.076;2023-06-19T07:23:03;103.55;;;98.45;;
64157;SDS011;50449;51.528;5.076;2023-06-19T07:25:29;102.90;;;97.82;;
64157;SDS011;50449;51.528;5.076;2023-06-19T07:27:54;105.78;;;100.75;;
64157;SDS011;50449;51.528;5.076;2023-06-19T07:30:20;108.55;;;103.35;;
64157;SDS011;50449;51.528;5.076;2023-06-19T07:32:45;102.55;;;97.75;;
64157;SDS011;50449;51.528;5.076;2023-06-19T07:35:11;103.72;;;98.82;;
64157;SDS011;50449;51.528;5.076;2023-06-19T07:37:36;108.20;;;102.72;;
64157;SDS011;50449;51.528;5.076;2023-06-19T07:40:02;104.13;;;99.28;;
64157;SDS011;50449;51.528;5.076;2023-06-19T07:42:28;108.18;;;102.97;;
64157;SDS011;50449;51.528;5.076;2023-06-19T07:44:53;106.97;;;101.63;;
64157;SDS011;50449;51.528;5.076;2023-06-19T07:47:19;109.18;;;103.88;;
64157;SDS011;50449;51.528;5.076;2023-06-19T07:49:45;105.72;;;100.63;;
64157;SDS011;50449;51.528;5.076;2023-06-19T07:52:12;108.38;;;103.28;;
64157;SDS011;50449;51.528;5.076;2023-06-19T07:54:49;106.40;;;101.07;;
64157;SDS011;50449;51.528;5.076;2023-06-19T07:59:41;103.10;;;97.85;;
64157;SDS011;50449;51.528;5.076;2023-06-19T08:02:07;105.55;;;100.53;;
64157;SDS011;50449;51.528;5.076;2023-06-19T08:04:32;105.72;;;100.05;;
64157;SDS011;50449;51.528;5.076;2023-06-19T08:06:57;106.28;;;100.78;;
64157;SDS011;50449;51.528;5.076;2023-06-19T08:09:23;102.40;;;97.45;;
64157;SDS011;50449;51.528;5.076;2023-06-19T08:11:48;105.45;;;100.25;;
64157;SDS011;50449;51.528;5.076;2023-06-19T08:14:13;109.13;;;103.72;;
64157;SDS011;50449;51.528;5.076;2023-06-19T08:16:39;105.55;;;100.43;;
64157;SDS011;50449;51.528;5.076;2023-06-19T08:19:04;107.30;;;102.13;;
64157;SDS011;50449;51.528;5.076;2023-06-19T08:21:30;107.50;;;102.40;;
64157;SDS011;50449;51.528;5.076;2023-06-19T08:23:55;112.03;;;106.72;;
64157;SDS011;50449;51.528;5.076;2023-06-19T08:26:20;110.05;;;104.65;;
64157;SDS011;50449;51.528;5.076;2023-06-19T08:28:46;111.07;;;105.65;;
64157;SDS011;50449;51.528;5.076;2023-06-19T08:31:11;111.05;;;105.45;;
64157;SDS011;50449;51.528;5.076;2023-06-19T08:33:36;107.88;;;102.78;;
64157;SDS011;50449;51.528;5.076;2023-06-19T08:36:02;110.63;;;104.72;;
64157;SDS011;50449;51.528;5.076;2023-06-19T08:38:27;109.13;;;104.00;;
64157;SDS011;50449;51.528;5.076;2023-06-19T08:40:53;109.80;;;104.43;;
64157;SDS011;50449;51.528;5.076;2023-06-19T08:43:20;107.55;;;102.35;;
64157;SDS011;50449;51.528;5.076;2023-06-19T08:48:40;106.68;;;101.55;;
64157;SDS011;50449;51.528;5.076;2023-06-19T08:51:06;112.80;;;107.40;;
64157;SDS011;50449;51.528;5.076;2023-06-19T08:53:35;107.63;;;102.45;;
64157;SDS011;50449;51.528;5.076;2023-06-19T08:56:08;106.00;;;100.95;;
64157;SDS011;50449;51.528;5.076;2023-06-19T08:58:34;107.35;;;102.13;;
64157;SDS011;50449;51.528;5.076;2023-06-19T09:00:59;110.13;;;104.70;;
64157;SDS011;50449;51.528;5.076;2023-06-19T09:03:25;107.43;;;102.43;;
64157;SDS011;50449;51.528;5.076;2023-06-19T09:05:50;111.03;;;105.35;;
64157;SDS011;50449;51.528;5.076;2023-06-19T09:08:16;111.72;;;106.22;;
64157;SDS011;50449;51.528;5.076;2023-06-19T09:10:43;112.15;;;106.75;;
64157;SDS011;50449;51.528;5.076;2023-06-19T09:13:18;110.63;;;104.93;;
64157;SDS011;50449;51.528;5.076;2023-06-19T09:15:44;112.28;;;106.97;;
64157;SDS011;50449;51.528;5.076;2023-06-19T09:18:10;114.57;;;108.80;;
64157;SDS011;50449;51.528;5.076;2023-06-19T09:20:40;113.28;;;107.45;;
64157;SDS011;50449;51.528;5.076;2023-06-19T09:23:12;116.47;;;110.53;;
64157;SDS011;50449;51.528;5.076;2023-06-19T09:25:47;115.97;;;110.28;;
64157;SDS011;50449;51.528;5.076;2023-06-19T09:28:23;113.38;;;107.63;;
64157;SDS011;50449;51.528;5.076;2023-06-19T09:33:31;113.70;;;107.70;;
64157;SDS011;50449;51.528;5.076;2023-06-19T09:35:58;113.25;;;107.63;;
64157;SDS011;50449;51.528;5.076;2023-06-19T09:38:25;117.75;;;112.05;;
64157;SDS011;50449;51.528;5.076;2023-06-19T09:40:52;116.07;;;110.30;;
64157;SDS011;50449;51.528;5.076;2023-06-19T09:43:24;118.60;;;113.13;;
64157;SDS011;50449;51.528;5.076;2023-06-19T09:45:54;116.70;;;111.10;;
64157;SDS011;50449;51.528;5.076;2023-06-19T09:48:22;118.93;;;112.82;;
64157;SDS011;50449;51.528;5.076;2023-06-19T09:51:02;118.75;;;113.10;;
64157;SDS011;50449;51.528;5.076;2023-06-19T09:53:29;119.20;;;113.32;;
64157;SDS011;50449;51.528;5.076;2023-06-19T09:55:55;120.97;;;114.80;;
64157;SDS011;50449;51.528;5.076;2023-06-19T09:58:21;121.63;;;115.30;;
64157;SDS011;50449;51.528;5.076;2023-06-19T10:00:47;114.03;;;108.07;;
64157;SDS011;50449;51.528;5.076;2023-06-19T10:03:16;120.88;;;114.93;;
64157;SDS011;50449;51.528;5.076;2023-06-19T10:05:42;119.43;;;114.05;;
64157;SDS011;50449;51.528;5.076;2023-06-19T10:08:07;122.45;;;116.25;;
64157;SDS011;50449;51.528;5.076;2023-06-19T10:10:33;119.78;;;114.18;;
64157;SDS011;50449;51.528;5.076;2023-06-19T10:13:10;120.82;;;114.30;;
64157;SDS011;50449;51.528;5.076;2023-06-19T10:15:42;120.05;;;114.22;;
64157;SDS011;50449;51.528;5.076;2023-06-19T10:18:13;124.80;;;118.25;;
64157;SDS011;50449;51.528;5.076;2023-06-19T10:20:42;123.97;;;117.90;;
64157;SDS011;50449;51.528;5.076;2023-06-19T10:23:12;125.45;;;119.55;;
64157;SDS011;50449;51.528;5.076;2023-06-19T10:25:43;124.47;;;118.03;;
64157;SDS011;50449;51.528;5.076;2023-06-19T10:31:00;129.60;;;123.22;;
64157;SDS011;50449;51.528;5.076;2023-06-19T10:33:37;124.78;;;118.78;;
64157;SDS011;50449;51.528;5.076;2023-06-19T10:36:16;129.50;;;123.63;;
64157;SDS011;50449;51.528;5.076;2023-06-19T10:38:44;125.45;;;119.45;;
64157;SDS011;50449;51.528;5.076;2023-06-19T10:41:18;127.53;;;121.30;;
64157;SDS011;50449;51.528;5.076;2023-06-19T10:44:04;126.72;;;120.03;;
64157;SDS011;50449;51.528;5.076;2023-06-19T10:46:35;127.22;;;121.32;;
64157;SDS011;50449;51.528;5.076;2023-06-19T10:49:02;131.45;;;125.32;;
64157;SDS011;50449;51.528;5.076;2023-06-19T10:51:30;129.80;;;123.57;;
64157;SDS011;50449;51.528;5.076;2023-06-19T10:53:56;130.82;;;124.43;;
64157;SDS011;50449;51.528;5.076;2023-06-19T10:56:22;126.82;;;120.78;;
64157;SDS011;50449;51.528;5.076;2023-06-19T10:58:56;129.50;;;123.00;;
64157;SDS011;50449;51.528;5.076;2023-06-19T11:01:31;130.88;;;124.65;;
64157;SDS011;50449;51.528;5.076;2023-06-19T11:04:07;132.55;;;126.28;;
64157;SDS011;50449;51.528;5.076;2023-06-19T11:06:34;130.57;;;124.07;;
64157;SDS011;50449;51.528;5.076;2023-06-19T11:09:00;130.70;;;124.60;;
64157;SDS011;50449;51.528;5.076;2023-06-19T11:11:41;132.77;;;126.50;;
64157;SDS011;50449;51.528;5.076;2023-06-19T11:14:06;135.20;;;128.60;;
64157;SDS011;50449;51.528;5.076;2023-06-19T11:16:33;132.68;;;126.68;;
64157;SDS011;50449;51.528;5.076;2023-06-19T11:19:00;133.20;;;126.88;;
64157;SDS011;50449;51.528;5.076;2023-06-19T11:21:33;136.55;;;129.65;;
64157;SDS011;50449;51.528;5.076;2023-06-19T11:24:09;138.00;;;130.88;;
64157;SDS011;50449;51.528;5.076;2023-06-19T11:26:40;135.45;;;128.80;;
64157;SDS011;50449;51.528;5.076;2023-06-19T11:29:15;133.90;;;127.97;;
64157;SDS011;50449;51.528;5.076;2023-06-19T11:31:41;131.20;;;124.30;;
64157;SDS011;50449;51.528;5.076;2023-06-19T11:34:06;131.80;;;125.63;;
64157;SDS011;50449;51.528;5.076;2023-06-19T11:36:32;130.65;;;124.65;;
64157;SDS011;50449;51.528;5.076;2023-06-19T11:38:58;131.57;;;124.13;;
64157;SDS011;50449;51.528;5.076;2023-06-19T11:41:26;133.95;;;127.25;;
64157;SDS011;50449;51.528;5.076;2023-06-19T11:43:59;132.98;;;125.95;;
64157;SDS011;50449;51.528;5.076;2023-06-19T11:46:29;134.70;;;128.48;;
64157;SDS011;50449;51.528;5.076;2023-06-19T11:48:59;140.90;;;134.50;;
64157;SDS011;50449;51.528;5.076;2023-06-19T11:51:39;141.48;;;135.00;;
64157;SDS011;50449;51.528;5.076;2023-06-19T11:54:05;133.10;;;127.07;;
64157;SDS011;50449;51.528;5.076;2023-06-19T11:56:32;134.40;;;128.50;;
64157;SDS011;50449;51.528;5.076;2023-06-19T11:58:57;138.02;;;131.18;;
64157;SDS011;50449;51.528;5.076;2023-06-19T12:01:23;138.90;;;132.55;;
64157;SDS011;50449;51.528;5.076;2023-06-19T12:03:48;144.02;;;137.63;;
64157;SDS011;50449;51.528;5.076;2023-06-19T12:06:15;143.57;;;136.90;;
64157;SDS011;50449;51.528;5.076;2023-06-19T12:08:42;146.27;;;139.77;;
64157;SDS011;50449;51.528;5.076;2023-06-19T12:11:08;139.48;;;133.15;;
64157;SDS011;50449;51.528;5.076;2023-06-19T12:13:35;145.33;;;138.77;;
64157;SDS011;50449;51.528;5.076;2023-06-19T12:16:00;140.57;;;134.30;;
64157;SDS011;50449;51.528;5.076;2023-06-19T12:18:26;145.82;;;138.50;;
64157;SDS011;50449;51.528;5.076;2023-06-19T12:20:52;144.77;;;138.13;;
64157;SDS011;50449;51.528;5.076;2023-06-19T12:23:17;146.32;;;139.70;;
64157;SDS011;50449;51.528;5.076;2023-06-19T12:25:42;145.10;;;138.13;;
64157;SDS011;50449;51.528;5.076;2023-06-19T12:28:08;145.38;;;138.98;;
64157;SDS011;50449;51.528;5.076;2023-06-19T12:30:34;145.98;;;139.52;;
64157;SDS011;50449;51.528;5.076;2023-06-19T12:33:01;146.35;;;139.77;;
64157;SDS011;50449;51.528;5.076;2023-06-19T12:35:28;147.57;;;140.47;;
64157;SDS011;50449;51.528;5.076;2023-06-19T12:37:53;149.85;;;143.13;;
64157;SDS011;50449;51.528;5.076;2023-06-19T12:40:20;146.85;;;140.43;;
64157;SDS011;50449;51.528;5.076;2023-06-19T12:42:45;147.60;;;141.05;;
64157;SDS011;50449;51.528;5.076;2023-06-19T12:45:11;148.80;;;142.13;;
64157;SDS011;50449;51.528;5.076;2023-06-19T12:47:37;151.05;;;144.15;;
64157;SDS011;50449;51.528;5.076;2023-06-19T12:50:02;148.52;;;142.02;;
64157;SDS011;50449;51.528;5.076;2023-06-19T12:52:28;152.48;;;145.65;;
64157;SDS011;50449;51.528;5.076;2023-06-19T12:54:55;149.50;;;142.90;;
64157;SDS011;50449;51.528;5.076;2023-06-19T12:57:21;148.85;;;142.15;;
64157;SDS011;50449;51.528;5.076;2023-06-19T12:59:46;153.43;;;146.73;;
64157;SDS011;50449;51.528;5.076;2023-06-19T13:02:11;152.35;;;145.85;;
64157;SDS011;50449;51.528;5.076;2023-06-19T13:04:37;151.10;;;144.30;;
64157;SDS011;50449;51.528;5.076;2023-06-19T13:07:03;152.55;;;145.85;;
64157;SDS011;50449;51.528;5.076;2023-06-19T13:09:29;158.73;;;151.52;;
64157;SDS011;50449;51.528;5.076;2023-06-19T13:11:55;158.00;;;151.10;;
64157;SDS011;50449;51.528;5.076;2023-06-19T13:14:20;156.80;;;150.00;;
64157;SDS011;50449;51.528;5.076;2023-06-19T13:16:47;155.90;;;149.27;;
64157;SDS011;50449;51.528;5.076;2023-06-19T13:19:13;158.38;;;151.48;;
64157;SDS011;50449;51.528;5.076;2023-06-19T13:21:40;160.13;;;153.07;;
64157;SDS011;50449;51.528;5.076;2023-06-19T13:24:06;163.53;;;156.53;;
64157;SDS011;50449;51.528;5.076;2023-06-19T13:26:31;164.35;;;157.25;;
64157;SDS011;50449;51.528;5.076;2023-06-19T13:28:57;159.80;;;153.00;;
64157;SDS011;50449;51.528;5.076;2023-06-19T13:31:24;163.38;;;156.27;;
64157;SDS011;50449;51.528;5.076;2023-06-19T13:33:50;161.25;;;154.32;;
64157;SDS011;50449;51.528;5.076;2023-06-19T13:36:15;160.63;;;153.63;;
64157;SDS011;50449;51.528;5.076;2023-06-19T13:41:08;159.98;;;153.07;;
64157;SDS011;50449;51.528;5.076;2023-06-19T13:43:34;160.23;;;153.40;;
64157;SDS011;50449;51.528;5.076;2023-06-19T13:45:59;163.93;;;156.95;;
64157;SDS011;50449;51.528;5.076;2023-06-19T13:48:26;163.23;;;156.13;;
64157;SDS011;50449;51.528;5.076;2023-06-19T13:50:51;163.02;;;156.02;;
64157;SDS011;50449;51.528;5.076;2023-06-19T13:53:16;161.52;;;154.57;;
64157;SDS011;50449;51.528;5.076;2023-06-19T13:55:42;166.85;;;159.50;;
64157;SDS011;50449;51.528;5.076;2023-06-19T13:58:07;164.43;;;156.90;;
64157;SDS011;50449;51.528;5.076;2023-06-19T14:00:32;163.93;;;156.93;;
64157;SDS011;50449;51.528;5.076;2023-06-19T14:03:00;165.85;;;158.73;;
64157;SDS011;50449;51.528;5.076;2023-06-19T14:05:25;163.73;;;156.82;;
64157;SDS011;50449;51.528;5.076;2023-06-19T14:07:51;164.70;;;157.60;;
64157;SDS011;50449;51.528;5.076;2023-06-19T14:10:17;167.02;;;159.70;;
64157;SDS011;50449;51.528;5.076;2023-06-19T14:12:42;168.95;;;161.75;;
64157;SDS011;50449;51.528;5.076;2023-06-19T14:15:07;172.70;;;165.40;;
64157;SDS011;50449;51.528;5.076;2023-06-19T14:17:33;170.43;;;163.07;;